createdAt,value
2022-09-23T00:00:36.937Z,99.99
2022-09-23T00:01:37.011Z,99.99
2022-09-23T00:02:36.879Z,99.99
2022-09-23T00:03:36.827Z,99.99
2022-09-23T00:04:36.815Z,99.99
2022-09-23T00:05:37.183Z,99.99
2022-09-23T00:06:36.802Z,99.99
2022-09-23T00:07:36.812Z,99.99
2022-09-23T00:08:36.783Z,99.99
2022-09-23T00:09:36.766Z,99.99
2022-09-23T00:10:36.753Z,99.99
2022-09-23T00:11:36.746Z,99.99
2022-09-23T00:12:36.744Z,99.99
2022-09-23T00:13:36.733Z,99.99
2022-09-23T00:14:36.729Z,99.99
2022-09-23T00:15:36.727Z,99.99
2022-09-23T00:16:36.776Z,99.99
2022-09-23T00:17:36.695Z,99.99
2022-09-23T00:18:36.669Z,99.99
2022-09-23T00:19:36.666Z,99.99
2022-09-23T00:20:36.646Z,99.99
2022-09-23T00:21:36.634Z,99.99
2022-09-23T00:22:36.628Z,99.99
2022-09-23T00:23:36.623Z,99.99
2022-09-23T00:24:36.605Z,99.99
2022-09-23T00:25:36.607Z,99.99
2022-09-23T00:26:36.584Z,99.99
2022-09-23T00:27:36.569Z,99.99
2022-09-23T00:28:36.560Z,99.99
2022-09-23T00:29:36.550Z,99.99
2022-09-23T00:30:36.582Z,99.99
2022-09-23T00:31:36.544Z,99.99
2022-09-23T00:32:36.521Z,99.99
2022-09-23T00:33:36.513Z,99.99
2022-09-23T00:34:36.515Z,99.99
2022-09-23T00:35:36.493Z,99.99
2022-09-23T00:36:36.525Z,99.99
2022-09-23T00:37:36.460Z,99.99
2022-09-23T00:38:36.453Z,99.99
2022-09-23T00:39:36.447Z,99.99
2022-09-23T00:40:36.499Z,99.99
2022-09-23T00:41:36.428Z,99.99
2022-09-23T00:42:36.402Z,99.99
2022-09-23T00:43:36.417Z,99.99
2022-09-23T00:44:36.403Z,99.99
2022-09-23T00:45:36.421Z,99.99
2022-09-23T00:46:36.376Z,99.99
2022-09-23T00:47:36.369Z,99.99
2022-09-23T00:48:36.353Z,99.99
2022-09-23T00:49:36.342Z,99.99
2022-09-23T00:50:36.331Z,99.99
2022-09-23T00:51:36.369Z,99.99
2022-09-23T00:52:36.303Z,99.99
2022-09-23T00:53:36.305Z,99.99
2022-09-23T00:54:36.278Z,99.99
2022-09-23T00:55:36.275Z,99.99
2022-09-23T00:56:36.266Z,99.99
2022-09-23T00:57:36.253Z,99.99
2022-09-23T00:58:36.228Z,99.99
2022-09-23T00:59:36.237Z,99.99
2022-09-23T01:00:36.236Z,99.99
2022-09-23T01:01:36.340Z,99.99
2022-09-23T01:02:36.211Z,99.99
2022-09-23T01:03:36.184Z,99.99
2022-09-23T01:04:36.181Z,99.99
2022-09-23T01:05:36.171Z,99.99
2022-09-23T01:06:36.163Z,99.99
2022-09-23T01:07:36.360Z,99.99
2022-09-23T01:08:36.133Z,99.99
2022-09-23T01:09:36.126Z,99.99
2022-09-23T01:10:36.106Z,99.99
2022-09-23T01:11:36.127Z,99.99
2022-09-23T01:12:36.093Z,99.99
2022-09-23T01:13:36.081Z,99.99
2022-09-23T01:14:36.072Z,99.99
2022-09-23T01:15:36.058Z,99.99
2022-09-23T01:16:36.076Z,99.99
2022-09-23T01:17:36.332Z,99.99
2022-09-23T01:18:36.030Z,99.99
2022-09-23T01:19:36.026Z,99.99
2022-09-23T01:20:35.999Z,99.99
2022-09-23T01:21:35.989Z,99.99
2022-09-23T01:22:35.975Z,99.99
2022-09-23T01:23:35.976Z,99.99
2022-09-23T01:24:35.957Z,99.99
2022-09-23T01:25:35.949Z,99.99
2022-09-23T01:26:35.939Z,99.99
2022-09-23T01:27:35.926Z,99.99
2022-09-23T01:28:35.917Z,99.99
2022-09-23T01:29:35.908Z,99.99
2022-09-23T01:30:35.942Z,99.99
2022-09-23T01:31:35.891Z,99.99
2022-09-23T01:32:35.870Z,99.99
2022-09-23T01:33:35.861Z,99.99
2022-09-23T01:34:35.847Z,99.99
2022-09-23T01:35:35.839Z,99.99
2022-09-23T01:36:35.837Z,99.99
2022-09-23T01:37:35.821Z,99.99
2022-09-23T01:38:35.812Z,99.99
2022-09-23T01:39:35.810Z,99.99
2022-09-23T01:40:35.892Z,99.99
2022-09-23T01:41:35.786Z,99.99
2022-09-23T01:42:35.768Z,99.99
2022-09-23T01:43:35.769Z,99.99
2022-09-23T01:44:35.759Z,99.99
2022-09-23T01:45:35.740Z,99.99
2022-09-23T01:46:35.726Z,99.99
2022-09-23T01:47:35.722Z,99.99
2022-09-23T01:48:35.799Z,99.99
2022-09-23T01:49:35.693Z,99.99
2022-09-23T01:50:35.706Z,99.99
2022-09-23T01:51:35.687Z,99.99
2022-09-23T01:52:35.648Z,99.99
2022-09-23T01:53:35.649Z,99.99
2022-09-23T01:54:35.640Z,99.99
2022-09-23T01:55:35.637Z,99.99
2022-09-23T01:56:35.607Z,99.99
2022-09-23T01:57:35.603Z,99.99
2022-09-23T01:58:35.590Z,99.99
2022-09-23T01:59:35.577Z,99.99
2022-09-23T02:00:35.578Z,99.99
2022-09-23T02:01:35.632Z,99.99
2022-09-23T02:02:35.584Z,99.99
2022-09-23T02:03:35.535Z,99.99
2022-09-23T02:04:35.531Z,99.99
2022-09-23T02:05:35.518Z,99.99
2022-09-23T02:06:35.514Z,99.99
2022-09-23T02:07:35.512Z,99.99
2022-09-23T02:08:36.547Z,99.99
2022-09-23T02:09:35.477Z,99.99
2022-09-23T02:10:35.468Z,99.99
2022-09-23T02:11:35.464Z,99.99
2022-09-23T02:12:35.440Z,99.99
2022-09-23T02:13:35.436Z,99.99
2022-09-23T02:14:35.437Z,99.99
2022-09-23T02:15:35.429Z,99.99
2022-09-23T02:16:35.424Z,99.99
2022-09-23T02:17:35.386Z,99.99
2022-09-23T02:18:35.376Z,99.99
2022-09-23T02:19:35.376Z,99.99
2022-09-23T02:20:35.368Z,99.99
2022-09-23T02:21:35.335Z,99.99
2022-09-23T02:22:35.513Z,99.99
2022-09-23T02:23:35.331Z,99.99
2022-09-23T02:24:35.319Z,99.99
2022-09-23T02:25:35.308Z,99.99
2022-09-23T02:26:35.305Z,99.99
2022-09-23T02:27:35.296Z,99.99
2022-09-23T02:28:35.273Z,99.99
2022-09-23T02:29:35.265Z,99.99
2022-09-23T02:30:35.255Z,99.99
2022-09-23T02:31:35.312Z,99.99
2022-09-23T02:32:35.232Z,99.99
2022-09-23T02:33:35.228Z,99.99
2022-09-23T02:34:35.204Z,99.99
2022-09-23T02:35:35.224Z,99.99
2022-09-23T02:36:35.187Z,99.99
2022-09-23T02:37:35.189Z,99.99
2022-09-23T02:38:35.163Z,99.99
2022-09-23T02:39:35.201Z,99.99
2022-09-23T02:40:35.235Z,99.99
2022-09-23T02:41:35.143Z,99.99
2022-09-23T02:42:35.123Z,99.99
2022-09-23T02:43:35.119Z,99.99
2022-09-23T02:44:35.109Z,99.99
2022-09-23T02:45:35.129Z,99.99
2022-09-23T02:46:35.082Z,99.99
2022-09-23T02:47:35.074Z,99.99
2022-09-23T02:48:35.065Z,99.99
2022-09-23T02:49:35.056Z,99.99
2022-09-23T02:50:35.052Z,99.99
2022-09-23T02:51:35.028Z,99.99
2022-09-23T02:52:35.025Z,99.99
2022-09-23T02:53:35.034Z,99.99
2022-09-23T02:54:35.012Z,99.99
2022-09-23T02:55:34.994Z,99.99
2022-09-23T02:56:35.029Z,99.99
2022-09-23T02:57:34.965Z,99.99
2022-09-23T02:58:34.961Z,99.99
2022-09-23T02:59:34.947Z,99.99
2022-09-23T03:00:34.933Z,99.99
2022-09-23T03:01:34.973Z,99.99
2022-09-23T03:02:34.938Z,99.99
2022-09-23T03:03:34.901Z,99.99
2022-09-23T03:04:34.887Z,99.99
2022-09-23T03:05:34.984Z,99.99
2022-09-23T03:06:34.864Z,99.99
2022-09-23T03:07:34.855Z,99.99
2022-09-23T03:08:34.852Z,99.99
2022-09-23T03:09:34.839Z,99.99
2022-09-23T03:10:35.010Z,99.99
2022-09-23T03:11:34.821Z,99.99
2022-09-23T03:12:34.801Z,99.99
2022-09-23T03:13:34.802Z,99.99
2022-09-23T03:14:34.783Z,99.99
2022-09-23T03:15:34.786Z,99.99
2022-09-23T03:16:34.804Z,99.99
2022-09-23T03:17:34.756Z,99.99
2022-09-23T03:18:34.760Z,99.99
2022-09-23T03:19:34.736Z,99.99
2022-09-23T03:20:34.716Z,99.99
2022-09-23T03:21:34.716Z,99.99
2022-09-23T03:22:34.704Z,99.99
2022-09-23T03:23:34.699Z,99.99
2022-09-23T03:24:34.674Z,99.99
2022-09-23T03:25:34.672Z,99.99
2022-09-23T03:26:34.659Z,99.99
2022-09-23T03:27:34.652Z,99.99
2022-09-23T03:28:34.639Z,99.99
2022-09-23T03:29:34.621Z,99.99
2022-09-23T03:30:34.728Z,99.99
2022-09-23T03:31:34.650Z,99.99
2022-09-23T03:32:34.578Z,99.99
2022-09-23T03:33:34.579Z,99.99
2022-09-23T03:34:34.959Z,99.99
2022-09-23T03:35:34.561Z,99.99
2022-09-23T03:36:34.558Z,99.99
2022-09-23T03:37:34.564Z,99.99
2022-09-23T03:38:34.525Z,99.99
2022-09-23T03:39:34.526Z,99.99
2022-09-23T03:40:34.596Z,99.99
2022-09-23T03:41:34.534Z,99.99
2022-09-23T03:42:34.480Z,99.99
2022-09-23T03:43:38.664Z,99.99
2022-09-23T03:44:34.462Z,99.99
2022-09-23T03:45:34.529Z,99.99
2022-09-23T03:46:34.444Z,99.99
2022-09-23T03:47:34.435Z,99.99
2022-09-23T03:48:34.432Z,99.99
2022-09-23T03:49:34.422Z,99.99
2022-09-23T03:50:34.403Z,99.99
2022-09-23T03:51:34.380Z,99.99
2022-09-23T03:52:34.378Z,99.99
2022-09-23T03:53:34.377Z,99.99
2022-09-23T03:54:34.363Z,99.99
2022-09-23T03:55:34.359Z,99.99
2022-09-23T03:56:34.335Z,99.99
2022-09-23T03:57:34.331Z,99.99
2022-09-23T03:58:34.312Z,99.99
2022-09-23T03:59:34.304Z,99.99
2022-09-23T04:00:34.339Z,99.99
2022-09-23T04:01:34.281Z,99.99
2022-09-23T04:02:34.321Z,99.99
2022-09-23T04:03:34.260Z,99.99
2022-09-23T04:04:34.250Z,99.99
2022-09-23T04:05:34.241Z,99.99
2022-09-23T04:06:34.237Z,99.99
2022-09-23T04:07:34.216Z,99.99
2022-09-23T04:08:34.211Z,99.99
2022-09-23T04:09:34.194Z,99.99
2022-09-23T04:10:34.206Z,99.99
2022-09-23T04:11:34.179Z,99.99
2022-09-23T04:12:34.361Z,99.99
2022-09-23T04:13:34.157Z,99.99
2022-09-23T04:14:34.150Z,99.99
2022-09-23T04:15:34.121Z,99.99
2022-09-23T04:16:34.143Z,99.99
2022-09-23T04:17:34.098Z,99.99
2022-09-23T04:18:34.100Z,99.99
2022-09-23T04:19:34.081Z,99.99
2022-09-23T04:20:34.098Z,99.99
2022-09-23T04:21:34.060Z,99.99
2022-09-23T04:22:34.068Z,99.99
2022-09-23T04:23:34.039Z,99.99
2022-09-23T04:24:34.032Z,99.99
2022-09-23T04:25:34.012Z,99.99
2022-09-23T04:26:34.018Z,99.99
2022-09-23T04:27:37.629Z,99.99
2022-09-23T04:28:33.995Z,99.99
2022-09-23T04:29:33.966Z,99.99
2022-09-23T04:30:33.967Z,99.99
2022-09-23T04:31:34.007Z,99.99
2022-09-23T04:32:33.945Z,99.99
2022-09-23T04:33:33.927Z,99.99
2022-09-23T04:34:33.927Z,99.99
2022-09-23T04:35:36.690Z,99.99
2022-09-23T04:36:35.361Z,99.99
2022-09-23T04:37:33.901Z,99.99
2022-09-23T04:38:33.887Z,99.99
2022-09-23T04:39:33.873Z,99.99
2022-09-23T04:40:34.034Z,99.99
2022-09-23T04:41:33.853Z,99.99
2022-09-23T04:42:33.856Z,99.99
2022-09-23T04:43:33.828Z,99.99
2022-09-23T04:44:33.819Z,99.99
2022-09-23T04:45:33.991Z,99.99
2022-09-23T04:46:33.843Z,99.99
2022-09-23T04:47:33.786Z,99.99
2022-09-23T04:48:33.773Z,99.99
2022-09-23T04:49:33.776Z,99.99
2022-09-23T04:50:33.817Z,99.99
2022-09-23T04:51:33.747Z,99.99
2022-09-23T04:52:33.747Z,99.99
2022-09-23T04:53:33.713Z,99.99
2022-09-23T04:54:33.710Z,99.99
2022-09-23T04:55:33.703Z,99.99
2022-09-23T04:56:33.701Z,99.99
2022-09-23T04:57:33.677Z,99.99
2022-09-23T04:58:33.686Z,99.99
2022-09-23T04:59:33.659Z,99.99
2022-09-23T05:00:33.676Z,99.99
2022-09-23T05:01:33.804Z,99.99
2022-09-23T05:02:33.673Z,99.99
2022-09-23T05:03:33.625Z,99.99
2022-09-23T05:04:33.610Z,99.99
2022-09-23T05:05:33.596Z,99.99
2022-09-23T05:06:33.598Z,99.99
2022-09-23T05:07:33.590Z,99.99
2022-09-23T05:08:33.570Z,99.99
2022-09-23T05:09:33.566Z,99.99
2022-09-23T05:10:33.554Z,99.99
2022-09-23T05:11:33.528Z,99.99
2022-09-23T05:12:33.535Z,99.99
2022-09-23T05:13:33.678Z,99.99
2022-09-23T05:14:33.506Z,99.99
2022-09-23T05:15:33.492Z,99.99
2022-09-23T05:16:33.524Z,99.99
2022-09-23T05:17:33.471Z,99.99
2022-09-23T05:18:33.464Z,99.99
2022-09-23T05:19:33.456Z,99.99
2022-09-23T05:20:33.459Z,99.99
2022-09-23T05:21:33.436Z,99.99
2022-09-23T05:22:33.420Z,99.99
2022-09-23T05:23:33.406Z,99.99
2022-09-23T05:24:33.439Z,99.99
2022-09-23T05:25:38.103Z,99.99
2022-09-23T05:26:34.372Z,99.99
2022-09-23T05:27:33.361Z,99.99
2022-09-23T05:28:33.361Z,99.99
2022-09-23T05:29:33.358Z,99.99
2022-09-23T05:30:33.349Z,99.99
2022-09-23T05:31:33.366Z,99.99
2022-09-23T05:32:33.316Z,99.99
2022-09-23T05:33:33.302Z,99.99
2022-09-23T05:34:33.297Z,99.99
2022-09-23T05:35:33.280Z,99.99
2022-09-23T05:36:37.877Z,99.99
2022-09-23T05:37:34.259Z,99.99
2022-09-23T05:38:33.258Z,99.99
2022-09-23T05:39:33.249Z,99.99
2022-09-23T05:40:33.333Z,99.99
2022-09-23T05:41:33.231Z,99.99
2022-09-23T05:42:33.213Z,99.99
2022-09-23T05:43:33.201Z,99.99
2022-09-23T05:44:33.211Z,99.99
2022-09-23T05:45:33.171Z,99.99
2022-09-23T05:46:33.286Z,99.99
2022-09-23T05:47:33.157Z,99.99
2022-09-23T05:48:33.148Z,99.99
2022-09-23T05:49:55.173Z,99.99
2022-09-23T05:50:34.120Z,99.99
2022-09-23T05:51:33.117Z,99.99
2022-09-23T05:52:33.099Z,99.99
2022-09-23T05:53:33.089Z,99.99
2022-09-23T05:54:33.085Z,99.99
2022-09-23T05:55:33.070Z,99.99
2022-09-23T05:56:33.073Z,99.99
2022-09-23T05:57:33.053Z,99.99
2022-09-23T05:58:33.040Z,99.99
2022-09-23T05:59:33.026Z,99.99
2022-09-23T06:00:33.007Z,99.99
2022-09-23T06:01:33.055Z,99.99
2022-09-23T06:02:33.008Z,99.99
2022-09-23T06:03:32.981Z,99.99
2022-09-23T06:04:32.982Z,99.99
2022-09-23T06:05:32.981Z,99.99
2022-09-23T06:06:32.954Z,99.99
2022-09-23T06:07:32.935Z,99.99
2022-09-23T06:08:32.935Z,99.99
2022-09-23T06:09:36.366Z,99.99
2022-09-23T06:10:32.929Z,99.99
2022-09-23T06:11:32.904Z,99.99
2022-09-23T06:12:32.902Z,99.99
2022-09-23T06:13:32.882Z,99.99
2022-09-23T06:14:32.862Z,99.99
2022-09-23T06:15:33.105Z,99.99
2022-09-23T06:16:32.939Z,99.99
2022-09-23T06:17:32.836Z,99.99
2022-09-23T06:18:32.821Z,99.99
2022-09-23T06:19:32.818Z,99.99
2022-09-23T06:20:32.830Z,99.99
2022-09-23T06:21:32.790Z,99.99
2022-09-23T06:22:35.443Z,99.99
2022-09-23T06:23:32.803Z,99.99
2022-09-23T06:24:32.980Z,99.99
2022-09-23T06:25:32.756Z,99.99
2022-09-23T06:26:32.756Z,99.99
2022-09-23T06:27:32.721Z,99.99
2022-09-23T06:28:32.723Z,99.99
2022-09-23T06:29:32.715Z,99.99
2022-09-23T06:30:32.712Z,99.99
2022-09-23T06:31:32.766Z,99.99
2022-09-23T06:32:32.667Z,99.99
2022-09-23T06:33:36.996Z,99.99
2022-09-23T06:34:42.471Z,99.99
2022-09-23T06:35:33.638Z,99.99
2022-09-23T06:36:42.228Z,99.99
2022-09-23T06:37:33.626Z,99.99
2022-09-23T06:38:32.614Z,99.99
2022-09-23T06:39:32.660Z,99.99
2022-09-23T06:40:32.695Z,99.99
2022-09-23T06:41:32.585Z,99.99
2022-09-23T06:42:32.589Z,99.99
2022-09-23T06:43:32.554Z,99.99
2022-09-23T06:44:32.541Z,99.99
2022-09-23T06:45:32.532Z,99.99
2022-09-23T06:46:32.636Z,99.99
2022-09-23T06:47:32.510Z,99.99
2022-09-23T06:48:32.511Z,99.99
2022-09-23T06:49:32.500Z,99.99
2022-09-23T06:50:32.488Z,99.99
2022-09-23T06:51:32.479Z,99.99
2022-09-23T06:52:32.486Z,99.99
2022-09-23T06:53:32.466Z,99.99
2022-09-23T06:54:32.452Z,99.99
2022-09-23T06:55:32.453Z,99.99
2022-09-23T06:56:37.774Z,99.99
2022-09-23T06:57:33.433Z,99.99
2022-09-23T06:58:32.426Z,99.99
2022-09-23T06:59:32.393Z,99.99
2022-09-23T07:00:32.398Z,99.99
2022-09-23T07:01:32.438Z,99.99
2022-09-23T07:02:32.455Z,99.99
2022-09-23T07:03:32.348Z,99.99
2022-09-23T07:04:32.323Z,99.99
2022-09-23T07:05:32.322Z,99.99
2022-09-23T07:06:32.321Z,99.99
2022-09-23T07:07:32.313Z,99.99
2022-09-23T07:08:32.297Z,99.99
2022-09-23T07:09:32.301Z,99.99
2022-09-23T07:10:32.265Z,99.99
2022-09-23T07:11:32.262Z,99.99
2022-09-23T07:12:32.484Z,99.99
2022-09-23T07:13:32.243Z,99.99
2022-09-23T07:14:32.230Z,99.99
2022-09-23T07:15:32.270Z,99.99
2022-09-23T07:16:32.211Z,99.99
2022-09-23T07:17:32.717Z,99.99
2022-09-23T07:18:36.412Z,99.99
2022-09-23T07:19:32.321Z,99.99
2022-09-23T07:20:32.163Z,99.99
2022-09-23T07:21:32.157Z,99.99
2022-09-23T07:22:32.767Z,99.99
2022-09-23T07:23:32.140Z,99.99
2022-09-23T07:24:32.145Z,99.99
2022-09-23T07:25:32.101Z,99.99
2022-09-23T07:26:32.123Z,99.99
2022-09-23T07:27:32.104Z,99.99
2022-09-23T07:28:32.080Z,99.99
2022-09-23T07:29:42.561Z,99.99
2022-09-23T07:30:33.084Z,99.74
2022-09-23T07:31:38.577Z,99.33
2022-09-23T07:32:43.772Z,98.92
2022-09-23T07:33:33.662Z,98.25
2022-09-23T07:34:32.060Z,97.74
2022-09-23T07:35:32.011Z,97.23
2022-09-23T07:36:31.989Z,96.41
2022-09-23T07:37:31.979Z,95.79
2022-09-23T07:38:31.991Z,95.18
2022-09-23T07:39:31.969Z,94.83
2022-09-23T07:40:32.050Z,94.52
2022-09-23T07:41:31.954Z,94.11
2022-09-23T07:42:31.946Z,93.86
2022-09-23T07:43:31.916Z,93.86
2022-09-23T07:44:31.932Z,93.86
2022-09-23T07:45:31.899Z,93.51
2022-09-23T07:46:31.974Z,93.30
2022-09-23T07:47:31.901Z,93.00
2022-09-23T07:48:34.302Z,92.96
2022-09-23T07:49:31.848Z,92.75
2022-09-23T07:50:31.840Z,91.73
2022-09-23T07:51:35.737Z,90.70
2022-09-23T07:52:31.831Z,90.81
2022-09-23T07:53:31.828Z,90.15
2022-09-23T07:54:31.803Z,89.53
2022-09-23T07:55:31.795Z,88.71
2022-09-23T07:56:31.795Z,88.98
2022-09-23T07:57:31.762Z,88.88
2022-09-23T07:58:31.763Z,88.78
2022-09-23T07:59:31.743Z,88.43
2022-09-23T08:00:31.736Z,87.71
2022-09-23T08:01:31.804Z,87.61
2022-09-23T08:02:31.767Z,87.71
2022-09-23T08:03:31.702Z,87.57
2022-09-23T08:04:31.717Z,87.57
2022-09-23T08:05:31.699Z,87.06
2022-09-23T08:06:31.706Z,87.32
2022-09-23T08:07:31.662Z,87.53
2022-09-23T08:08:31.650Z,86.71
2022-09-23T08:09:31.630Z,86.61
2022-09-23T08:10:31.641Z,85.96
2022-09-23T08:11:31.618Z,85.24
2022-09-23T08:12:31.615Z,85.10
2022-09-23T08:13:31.625Z,85.00
2022-09-23T08:14:31.580Z,83.87
2022-09-23T08:15:31.608Z,83.73
2022-09-23T08:16:31.605Z,83.53
2022-09-23T08:17:31.573Z,83.12
2022-09-23T08:18:31.559Z,82.98
2022-09-23T08:19:31.611Z,83.39
2022-09-23T08:20:31.531Z,82.33
2022-09-23T08:21:32.118Z,82.23
2022-09-23T08:22:31.503Z,82.29
2022-09-23T08:23:31.485Z,82.09
2022-09-23T08:24:31.482Z,80.93
2022-09-23T08:25:34.286Z,81.04
2022-09-23T08:26:31.463Z,80.29
2022-09-23T08:27:31.467Z,79.06
2022-09-23T08:28:31.441Z,79.57
2022-09-23T08:29:31.431Z,79.27
2022-09-23T08:30:31.418Z,79.53
2022-09-23T08:31:31.394Z,79.33
2022-09-23T08:32:31.404Z,79.02
2022-09-23T08:33:31.376Z,77.67
2022-09-23T08:34:31.363Z,75.80
2022-09-23T08:35:31.379Z,75.60
2022-09-23T08:36:31.361Z,75.05
2022-09-23T08:37:31.340Z,75.67
2022-09-23T08:38:31.321Z,74.85
2022-09-23T08:39:31.317Z,74.51
2022-09-23T08:40:31.336Z,73.39
2022-09-23T08:41:31.297Z,74.82
2022-09-23T08:42:31.280Z,74.41
2022-09-23T08:43:31.267Z,73.87
2022-09-23T08:44:31.264Z,74.07
2022-09-23T08:45:31.239Z,72.85
2022-09-23T08:46:31.616Z,72.45
2022-09-23T08:47:31.453Z,72.72
2022-09-23T08:48:31.212Z,70.28
2022-09-23T08:49:31.209Z,70.69
2022-09-23T08:50:31.291Z,71.77
2022-09-23T08:51:31.201Z,71.67
2022-09-23T08:52:31.187Z,71.03
2022-09-23T08:53:31.168Z,71.44
2022-09-23T08:54:31.154Z,70.49
2022-09-23T08:55:31.135Z,67.45
2022-09-23T08:56:31.150Z,66.24
2022-09-23T08:57:31.124Z,65.73
2022-09-23T08:58:31.108Z,64.11
2022-09-23T08:59:31.120Z,64.38
2022-09-23T09:00:31.068Z,62.96
2022-09-23T09:01:31.396Z,62.76
2022-09-23T09:02:31.079Z,62.66
2022-09-23T09:03:31.054Z,63.37
2022-09-23T09:04:31.045Z,62.43
2022-09-23T09:05:31.033Z,61.62
2022-09-23T09:06:31.029Z,61.92
2022-09-23T09:07:38.519Z,61.52
2022-09-23T09:08:31.992Z,60.50
2022-09-23T09:09:31.007Z,61.01
2022-09-23T09:10:30.978Z,61.01
2022-09-23T09:11:30.979Z,60.81
2022-09-23T09:12:30.959Z,61.62
2022-09-23T09:13:30.960Z,61.08
2022-09-23T09:14:30.946Z,61.08
2022-09-23T09:15:30.969Z,61.08
2022-09-23T09:16:55.343Z,61.56
2022-09-23T09:17:35.035Z,61.87
2022-09-23T16:25:11.076Z,57.23
2022-09-23T16:26:09.423Z,57.23
2022-09-23T16:27:09.656Z,57.12
2022-09-23T16:28:09.380Z,57.43
2022-09-23T16:29:09.456Z,57.53
2022-09-23T16:30:09.373Z,57.83
2022-09-23T16:31:09.360Z,58.06
2022-09-23T16:32:09.380Z,57.56
2022-09-23T16:33:09.341Z,57.05
2022-09-23T16:34:09.326Z,57.35
2022-09-23T16:35:09.341Z,57.76
2022-09-23T16:36:09.302Z,58.16
2022-09-23T16:37:09.312Z,58.76
2022-09-23T16:38:09.262Z,59.07
2022-09-23T16:39:09.242Z,58.89
2022-09-23T16:40:09.343Z,59.20
2022-09-23T16:41:09.347Z,59.40
2022-09-23T16:42:09.252Z,59.30
2022-09-23T16:43:09.243Z,59.40
2022-09-23T16:44:09.216Z,59.90
2022-09-23T16:45:09.241Z,60.10
2022-09-23T16:46:09.298Z,60.31
2022-09-23T16:47:09.193Z,60.61
2022-09-23T16:48:09.162Z,60.71
2022-09-23T16:49:09.164Z,61.61
2022-09-23T16:50:09.138Z,62.43
2022-09-23T16:51:09.117Z,62.96
2022-09-23T16:52:09.113Z,63.96
2022-09-23T16:53:09.179Z,64.27
2022-09-23T16:54:09.131Z,64.67
2022-09-23T16:55:09.217Z,64.87
2022-09-23T16:56:09.173Z,64.58
2022-09-23T16:57:09.079Z,64.58
2022-09-23T16:58:09.046Z,65.18
2022-09-23T16:59:09.143Z,65.38
2022-09-23T17:00:09.032Z,65.51
2022-09-23T17:01:09.130Z,66.22
2022-09-23T17:02:09.055Z,66.62
2022-09-23T17:03:09.010Z,67.13
2022-09-23T17:04:09.031Z,67.23
2022-09-23T17:05:08.969Z,67.13
2022-09-23T17:06:08.974Z,67.26
2022-09-23T17:07:08.965Z,66.86
2022-09-23T17:08:08.936Z,67.46
2022-09-23T17:09:08.942Z,67.97
2022-09-23T17:10:08.919Z,68.57
2022-09-23T17:11:08.904Z,68.60
2022-09-23T17:12:08.896Z,68.40
2022-09-23T17:13:08.892Z,68.40
2022-09-23T17:14:08.913Z,68.80
2022-09-23T17:15:08.848Z,68.91
2022-09-23T17:16:08.904Z,68.80
2022-09-23T17:17:08.842Z,68.33
2022-09-23T17:18:08.837Z,68.54
2022-09-23T17:19:08.878Z,68.74
2022-09-23T17:20:08.796Z,68.63
2022-09-23T17:21:08.795Z,68.74
2022-09-23T17:22:08.776Z,68.63
2022-09-23T17:23:08.764Z,68.74
2022-09-23T17:24:08.774Z,68.23
2022-09-23T17:25:08.786Z,68.33
2022-09-23T17:26:08.726Z,68.84
2022-09-23T17:27:09.004Z,68.57
2022-09-23T17:28:08.712Z,68.57
2022-09-23T17:29:08.695Z,69.07
2022-09-23T17:30:08.709Z,68.87
2022-09-23T17:31:08.849Z,69.38
2022-09-23T17:32:08.710Z,69.98
2022-09-23T17:33:08.661Z,70.09
2022-09-23T17:34:08.704Z,69.78
2022-09-23T17:35:08.621Z,69.58
2022-09-23T17:36:08.627Z,69.71
2022-09-23T17:37:08.641Z,69.71
2022-09-23T17:38:08.972Z,69.71
2022-09-23T17:39:08.661Z,70.02
2022-09-23T17:40:08.658Z,70.42
2022-09-23T17:41:08.563Z,70.52
2022-09-23T17:42:08.589Z,70.83
2022-09-23T17:43:08.555Z,70.93
2022-09-23T17:44:08.547Z,70.73
2022-09-23T17:45:08.649Z,70.86
2022-09-23T17:46:08.633Z,71.06
2022-09-23T17:47:08.556Z,71.57
2022-09-23T17:48:08.502Z,71.26
2022-09-23T17:49:08.636Z,71.06
2022-09-23T17:50:08.470Z,71.57
2022-09-23T17:51:08.464Z,71.97
2022-09-23T17:52:08.460Z,72.21
2022-09-23T17:53:08.440Z,72.01
2022-09-23T17:54:08.448Z,72.11
2022-09-23T17:55:08.436Z,72.41
2022-09-23T17:56:08.430Z,72.61
2022-09-23T17:57:08.634Z,72.72
2022-09-23T17:58:08.438Z,72.92
2022-09-23T17:59:08.379Z,73.02
2022-09-23T18:00:08.424Z,72.92
2022-09-23T18:01:08.410Z,72.92
2022-09-23T18:02:10.548Z,73.02
2022-09-23T18:03:08.346Z,72.81
2022-09-23T18:04:08.345Z,72.96
2022-09-23T18:05:08.320Z,72.45
2022-09-23T18:06:08.305Z,72.75
2022-09-23T18:07:08.303Z,72.75
2022-09-23T18:08:08.283Z,72.24
2022-09-23T18:09:08.350Z,72.75
2022-09-23T18:10:08.266Z,72.75
2022-09-23T18:11:08.251Z,73.16
2022-09-23T18:12:08.253Z,73.36
2022-09-23T18:13:08.219Z,73.56
2022-09-23T18:14:08.225Z,73.46
2022-09-23T18:15:08.211Z,73.36
2022-09-23T18:16:08.387Z,73.49
2022-09-23T18:17:08.200Z,72.78
2022-09-23T18:18:08.172Z,72.99
2022-09-23T18:19:08.222Z,73.29
2022-09-23T18:20:08.147Z,73.19
2022-09-23T18:21:08.159Z,73.39
2022-09-23T18:22:08.125Z,73.39
2022-09-23T18:23:08.333Z,73.29
2022-09-23T18:24:31.412Z,73.29
2022-09-23T18:25:28.497Z,73.29
2022-09-23T18:26:09.097Z,73.19
2022-09-23T18:27:08.085Z,73.09
2022-09-23T18:28:08.058Z,72.99
2022-09-23T18:29:08.445Z,73.19
2022-09-23T18:30:08.052Z,73.53
2022-09-23T18:31:08.083Z,73.83
2022-09-23T18:32:11.080Z,73.83
2022-09-23T18:33:09.009Z,73.53
2022-09-23T18:34:08.317Z,73.02
2022-09-23T18:35:07.980Z,72.92
2022-09-23T18:36:07.973Z,73.02
2022-09-23T18:37:15.284Z,72.92
2022-09-23T18:38:08.932Z,72.72
2022-09-23T18:39:07.965Z,72.52
2022-09-23T18:40:12.523Z,72.52
2022-09-23T18:41:08.927Z,72.41
2022-09-23T18:42:07.919Z,72.52
2022-09-23T18:43:07.912Z,72.61
2022-09-23T18:44:07.921Z,73.22
2022-09-23T18:45:08.335Z,73.33
2022-09-23T18:46:07.938Z,73.53
2022-09-23T18:47:07.869Z,73.63
2022-09-23T18:48:07.874Z,73.83
2022-09-23T18:49:07.863Z,74.24
2022-09-23T18:50:07.818Z,74.24
2022-09-23T18:51:07.783Z,74.27
2022-09-23T18:52:07.776Z,74.48
2022-09-23T18:53:07.840Z,74.78
2022-09-23T18:54:07.830Z,74.78
2022-09-23T18:55:07.744Z,74.38
2022-09-23T18:56:07.733Z,74.38
2022-09-23T18:57:07.845Z,74.27
2022-09-23T18:58:07.744Z,74.17
2022-09-23T18:59:07.852Z,73.77
2022-09-23T19:00:07.796Z,73.57
2022-09-23T19:01:07.809Z,73.46
2022-09-23T19:02:07.893Z,72.96
2022-09-23T19:03:07.695Z,73.57
2022-09-23T19:04:07.736Z,73.77
2022-09-23T19:05:07.657Z,73.46
2022-09-23T19:06:07.667Z,73.46
2022-09-23T19:07:07.655Z,73.57
2022-09-23T19:08:07.635Z,73.87
2022-09-23T19:09:07.611Z,73.97
2022-09-23T19:10:07.616Z,74.68
2022-09-23T19:11:07.609Z,75.09
2022-09-23T19:12:07.570Z,75.79
2022-09-23T19:13:07.582Z,76.20
2022-09-23T19:16:23.084Z,77.36
2022-09-23T19:17:25.755Z,76.95
2022-09-23T19:22:23.901Z,76.75
2022-09-23T19:23:23.085Z,76.95
2022-09-23T19:24:26.524Z,77.36
2022-09-23T19:25:23.315Z,77.36
2022-09-23T19:26:24.992Z,77.45
2022-09-23T19:27:22.989Z,77.86
2022-09-23T19:28:23.676Z,78.06
2022-09-23T19:29:21.927Z,78.10
2022-09-23T19:30:22.345Z,78.41
2022-09-23T19:31:22.158Z,78.91
2022-09-23T19:32:25.450Z,79.12
2022-09-23T19:33:24.894Z,79.32
2022-09-23T19:34:23.502Z,79.32
2022-09-23T19:35:24.094Z,79.22
2022-09-23T19:36:24.114Z,79.22
2022-09-23T19:37:21.580Z,79.32
2022-09-23T19:38:21.510Z,79.72
2022-09-23T19:39:21.468Z,79.72
2022-09-23T19:40:21.551Z,79.12
2022-09-23T19:41:21.400Z,79.66
2022-09-23T19:42:21.379Z,79.66
2022-09-23T19:43:21.375Z,79.77
2022-09-23T19:44:21.534Z,79.77
2022-09-23T19:45:21.422Z,79.66
2022-09-23T19:46:21.619Z,79.46
2022-09-23T19:47:21.562Z,79.25
2022-09-23T19:48:21.296Z,79.36
2022-09-23T19:49:21.283Z,79.46
2022-09-23T19:50:21.389Z,79.36
2022-09-23T19:51:21.265Z,79.56
2022-09-23T19:52:21.235Z,79.46
2022-09-23T19:53:24.807Z,79.56
2022-09-23T19:54:22.228Z,79.56
2022-09-23T19:55:21.213Z,79.77
2022-09-23T19:56:21.175Z,80.27
2022-09-23T19:57:21.261Z,80.37
2022-09-23T19:58:21.166Z,80.37
2022-09-23T19:59:21.202Z,80.78
2022-09-23T20:00:21.323Z,80.98
2022-09-23T20:01:21.315Z,81.19
2022-09-23T20:02:21.284Z,81.39
2022-09-23T20:03:21.183Z,81.23
2022-09-23T20:04:21.296Z,81.43
2022-09-23T20:05:21.160Z,81.53